Time;durP1;ratioP1;P1;durP2;ratioP2;P2;SDS_P1;SDS_P2;PMS_P1;PMS_P2;Temp;Humidity;BMP_temperature;BMP_pressure;BME280_temperature;BME280_humidity;BME280_pressure;Samples;Min_cycle;Max_cycle;Signal;HPM_P1;HPM_P2
2023/10/31 00:01:51;;;;;;;;;;;10.30;99.90;;;;;;5085571;28;19912;-76
2023/10/31 00:04:17;;;;;;;;;;;10.30;99.90;;;;;;5079533;28;19915;-75
2023/10/31 00:06:43;;;;;;;;;;;10.30;99.90;;;;;;5084025;28;19909;-76
2023/10/31 00:09:10;;;;;;;;;;;10.40;99.90;;;;;;5081041;28;19913;-75
2023/10/31 00:11:36;;;;;;;;;;;10.30;99.90;;;;;;5089026;28;19923;-75
2023/10/31 00:14:01;;;;;;;;;;;10.30;99.90;;;;;;5084103;28;20015;-75
2023/10/31 00:16:27;;;;;;;;;;;10.30;99.90;;;;;;5086139;28;19912;-76
2023/10/31 00:18:53;;;;;;;;;;;10.30;99.90;;;;;;5079123;28;19909;-75
2023/10/31 00:21:18;;;;;;;;;;;10.30;99.90;;;;;;5090525;28;19916;-75
2023/10/31 00:23:44;;;;;;;;;;;10.30;99.90;;;;;;5083760;28;19912;-76
2023/10/31 00:26:10;;;;;;;;;;;10.20;99.90;;;;;;5090433;28;19915;-76
2023/10/31 00:28:36;;;;;;;;;;;10.20;99.90;;;;;;5082038;28;20726;-75
2023/10/31 00:31:03;;;;;;;;;;;10.10;99.90;;;;;;5086497;28;19995;-76
2023/10/31 00:33:29;;;;;;;;;;;10.20;99.90;;;;;;5081899;28;19908;-76
2023/10/31 00:35:55;;;;;;;;;;;10.20;99.90;;;;;;5086851;28;20379;-76
2023/10/31 00:38:20;;;;;;;;;;;10.10;99.90;;;;;;5083337;28;20009;-76
2023/10/31 00:40:46;;;;;;;;;;;10.10;99.90;;;;;;5085938;28;19919;-76
2023/10/31 00:43:11;;;;;;;;;;;10.10;99.90;;;;;;5082196;28;19912;-77
2023/10/31 00:45:37;;;;;;;;;;;10.10;99.90;;;;;;5092676;28;19973;-77
2023/10/31 00:48:02;;;;;;;;;;;10.00;99.90;;;;;;5092544;28;19957;-77
2023/10/31 00:50:28;;;;;;;;;;;10.10;99.90;;;;;;5096452;28;19958;-77
2023/10/31 00:52:54;;;;;;;;;;;10.10;99.90;;;;;;5094365;28;19948;-77
2023/10/31 00:55:20;;;;;;;;;;;10.00;99.90;;;;;;5096841;28;19908;-77
2023/10/31 00:57:45;;;;;;;;;;;10.00;99.90;;;;;;5094493;28;20007;-76
2023/10/31 01:00:11;;;;;;;;;;;10.00;99.90;;;;;;5096615;28;19908;-75
2023/10/31 01:02:36;;;;;;;;;;;10.00;99.90;;;;;;5093631;28;19923;-77
2023/10/31 01:05:02;;;;;;;;;;;10.00;99.90;;;;;;5095611;28;20050;-77
2023/10/31 01:07:27;;;;;;;;;;;10.10;99.90;;;;;;5093654;28;19927;-76
2023/10/31 01:09:53;;;;;;;;;;;10.10;99.90;;;;;;5097352;28;19966;-76
2023/10/31 01:12:18;;;;;;;;;;;10.20;99.90;;;;;;5094612;28;19912;-76
2023/10/31 01:14:44;;;;;;;;;;;10.20;99.90;;;;;;5084825;28;20388;-75
2023/10/31 01:17:10;;;;;;;;;;;10.20;99.90;;;;;;5090279;28;20477;-76
2023/10/31 01:19:35;;;;;;;;;;;10.30;99.90;;;;;;5096254;28;20018;-76
2023/10/31 01:22:01;;;;;;;;;;;10.30;99.90;;;;;;5091153;28;19925;-77
2023/10/31 01:24:26;;;;;;;;;;;10.30;99.90;;;;;;5095223;28;19908;-77
2023/10/31 01:26:52;;;;;;;;;;;10.30;99.90;;;;;;5090554;28;19927;-77
2023/10/31 01:29:17;;;;;;;;;;;10.30;99.90;;;;;;5093656;28;19982;-77
2023/10/31 01:31:43;;;;;;;;;;;10.30;99.90;;;;;;5088712;28;19913;-77
2023/10/31 01:34:08;;;;;;;;;;;10.30;99.90;;;;;;5094450;28;19974;-77
2023/10/31 01:36:34;;;;;;;;;;;10.30;99.90;;;;;;5090059;28;19908;-77
2023/10/31 01:38:59;;;;;;;;;;;10.30;99.90;;;;;;5092570;28;19999;-76
2023/10/31 01:41:25;;;;;;;;;;;10.30;99.90;;;;;;5090449;28;20395;-77
2023/10/31 01:43:50;;;;;;;;;;;10.30;99.90;;;;;;5093607;28;19908;-77
2023/10/31 01:46:16;;;;;;;;;;;10.30;99.90;;;;;;5095434;28;20411;-77
2023/10/31 01:48:42;;;;;;;;;;;10.30;99.90;;;;;;5088740;28;20399;-77
2023/10/31 01:51:09;;;;;;;;;;;10.30;99.90;;;;;;5082305;28;19913;-77
2023/10/31 01:53:35;;;;;;;;;;;10.20;99.90;;;;;;5074390;28;19919;-77
2023/10/31 01:56:01;;;;;;;;;;;10.20;99.90;;;;;;5080871;28;19908;-77
2023/10/31 01:58:34;;;;;;;;;;;10.20;99.90;;;;;;5078283;28;19958;-77
2023/10/31 02:01:00;;;;;;;;;;;10.30;99.90;;;;;;5066172;28;19920;-76
2023/10/31 02:03:26;;;;;;;;;;;10.30;99.90;;;;;;5077551;28;20335;-77
2023/10/31 02:05:52;;;;;;;;;;;10.30;99.90;;;;;;5078202;28;19936;-77
2023/10/31 02:08:18;;;;;;;;;;;10.30;99.90;;;;;;5078178;28;19912;-77
2023/10/31 02:10:43;;;;;;;;;;;10.30;99.90;;;;;;5084002;28;19937;-77
2023/10/31 02:13:16;;;;;;;;;;;10.40;99.90;;;;;;5097374;28;19983;-78
2023/10/31 02:44:50;;;;;;;;;;;10.50;99.90;;;;;;5076099;28;19920;-76
2023/10/31 02:47:16;;;;;;;;;;;10.50;99.90;;;;;;5076373;28;19940;-77
2023/10/31 02:49:41;;;;;;;;;;;10.50;99.90;;;;;;5066380;28;19955;-76
2023/10/31 02:52:07;;;;;;;;;;;10.40;99.90;;;;;;5057555;28;19909;-76
2023/10/31 02:54:32;;;;;;;;;;;10.40;99.90;;;;;;5055749;28;19955;-77
2023/10/31 02:56:58;;;;;;;;;;;10.30;99.90;;;;;;5056538;28;19909;-76
2023/10/31 02:59:23;;;;;;;;;;;10.30;99.90;;;;;;5075698;28;19923;-76
2023/10/31 03:01:49;;;;;;;;;;;10.20;99.90;;;;;;5073575;28;19947;-76
2023/10/31 03:04:15;;;;;;;;;;;10.20;99.90;;;;;;5056928;28;19916;-76
2023/10/31 03:06:40;;;;;;;;;;;10.20;99.90;;;;;;5055690;28;19920;-78
2023/10/31 03:09:06;;;;;;;;;;;10.10;99.90;;;;;;5057163;28;19913;-77
2023/10/31 03:11:32;;;;;;;;;;;10.20;99.90;;;;;;5056955;28;19909;-77
2023/10/31 03:13:58;;;;;;;;;;;10.20;99.90;;;;;;5057071;28;19908;-76
2023/10/31 03:16:24;;;;;;;;;;;10.20;99.90;;;;;;5056883;28;19908;-76
2023/10/31 03:18:49;;;;;;;;;;;10.20;99.90;;;;;;5060476;28;20262;-77
2023/10/31 03:21:15;;;;;;;;;;;10.10;99.90;;;;;;5056792;28;19920;-77
2023/10/31 03:23:46;;;;;;;;;;;10.10;99.90;;;;;;5056775;28;19915;-76
2023/10/31 03:26:12;;;;;;;;;;;10.00;99.90;;;;;;5056747;28;20297;-77
2023/10/31 03:28:38;;;;;;;;;;;10.00;99.90;;;;;;5056839;28;19915;-77
2023/10/31 03:31:03;;;;;;;;;;;9.90;99.90;;;;;;5055832;28;19908;-77
2023/10/31 03:33:29;;;;;;;;;;;9.80;99.90;;;;;;5076887;28;19909;-77
2023/10/31 03:35:54;;;;;;;;;;;9.80;99.90;;;;;;5076305;28;20381;-76
2023/10/31 03:38:20;;;;;;;;;;;9.70;99.90;;;;;;5076530;28;19908;-77
2023/10/31 03:40:45;;;;;;;;;;;9.70;99.90;;;;;;5062480;28;19995;-76
2023/10/31 03:43:11;;;;;;;;;;;9.70;99.90;;;;;;5056545;28;19908;-76
2023/10/31 03:45:36;;;;;;;;;;;9.60;99.90;;;;;;5056093;28;19948;-77
2023/10/31 03:48:02;;;;;;;;;;;9.50;99.90;;;;;;5056454;28;19920;-77
2023/10/31 03:50:28;;;;;;;;;;;9.50;99.90;;;;;;5056044;28;19912;-77
2023/10/31 03:52:53;;;;;;;;;;;9.50;99.90;;;;;;5059504;28;19908;-76
2023/10/31 03:55:19;;;;;;;;;;;9.40;99.90;;;;;;5056263;28;19913;-76
2023/10/31 03:57:45;;;;;;;;;;;9.40;99.90;;;;;;5056294;28;19913;-76
2023/10/31 04:00:11;;;;;;;;;;;9.30;99.90;;;;;;5055830;28;19909;-77
2023/10/31 04:02:37;;;;;;;;;;;9.30;99.90;;;;;;5054739;28;20492;-77
2023/10/31 04:05:03;;;;;;;;;;;9.20;99.90;;;;;;5055555;28;20015;-77
2023/10/31 04:07:28;;;;;;;;;;;9.20;99.90;;;;;;5054367;28;19917;-77
2023/10/31 04:09:54;;;;;;;;;;;9.20;99.90;;;;;;5054747;28;19909;-77
2023/10/31 04:12:20;;;;;;;;;;;9.20;99.90;;;;;;5055023;28;19909;-77
2023/10/31 04:14:45;;;;;;;;;;;9.10;99.90;;;;;;5055835;28;19908;-77
2023/10/31 04:17:11;;;;;;;;;;;9.10;99.90;;;;;;5054721;28;19916;-76
2023/10/31 04:19:36;;;;;;;;;;;9.00;99.90;;;;;;5054544;28;20262;-76
2023/10/31 04:22:02;;;;;;;;;;;8.90;99.90;;;;;;5055894;28;20296;-76
2023/10/31 04:24:28;;;;;;;;;;;8.90;99.90;;;;;;5056169;28;19947;-76
2023/10/31 04:26:53;;;;;;;;;;;8.80;99.90;;;;;;5054585;28;19913;-77
2023/10/31 04:29:19;;;;;;;;;;;8.80;99.90;;;;;;5054693;28;19908;-77
2023/10/31 04:31:44;;;;;;;;;;;8.70;99.90;;;;;;5062257;28;19908;-77
2023/10/31 04:34:10;;;;;;;;;;;8.70;99.90;;;;;;5062699;28;19916;-77
2023/10/31 04:36:35;;;;;;;;;;;8.70;99.90;;;;;;5055927;28;19909;-76
2023/10/31 04:39:01;;;;;;;;;;;8.70;99.90;;;;;;5069879;28;19908;-76
2023/10/31 04:41:27;;;;;;;;;;;8.60;99.90;;;;;;5056248;28;19913;-76
2023/10/31 04:43:52;;;;;;;;;;;8.60;99.90;;;;;;5055690;28;20020;-76
2023/10/31 04:46:18;;;;;;;;;;;8.50;99.90;;;;;;5055640;28;19917;-76
2023/10/31 04:48:43;;;;;;;;;;;8.50;99.90;;;;;;5054414;28;19917;-76
2023/10/31 04:51:09;;;;;;;;;;;8.50;99.90;;;;;;5055566;28;19919;-76
2023/10/31 04:53:34;;;;;;;;;;;8.50;99.90;;;;;;5059347;28;19995;-76
2023/10/31 04:56:00;;;;;;;;;;;8.50;99.90;;;;;;5055683;28;19909;-76
2023/10/31 04:58:26;;;;;;;;;;;8.50;99.90;;;;;;5055750;28;19916;-76
2023/10/31 05:00:51;;;;;;;;;;;8.50;99.90;;;;;;5054061;28;19909;-76
2023/10/31 05:03:17;;;;;;;;;;;8.50;99.90;;;;;;5056325;28;19909;-76
2023/10/31 05:05:43;;;;;;;;;;;8.50;99.90;;;;;;5056182;28;19909;-76
2023/10/31 05:08:08;;;;;;;;;;;8.50;99.90;;;;;;5054363;28;19919;-76
2023/10/31 05:10:34;;;;;;;;;;;8.60;99.90;;;;;;5054225;28;20344;-76
2023/10/31 05:13:03;;;;;;;;;;;8.50;99.90;;;;;;5055672;28;19935;-77
2023/10/31 05:15:28;;;;;;;;;;;8.60;99.90;;;;;;5055576;28;19992;-77
2023/10/31 05:17:54;;;;;;;;;;;8.50;99.90;;;;;;5059261;28;19953;-77
2023/10/31 05:20:20;;;;;;;;;;;8.50;99.90;;;;;;5058949;28;20252;-76
2023/10/31 05:22:46;;;;;;;;;;;8.50;99.90;;;;;;5059031;28;19913;-77
2023/10/31 05:25:11;;;;;;;;;;;8.50;99.90;;;;;;5057800;28;20003;-76
2023/10/31 05:27:37;;;;;;;;;;;8.40;99.90;;;;;;5059157;28;19932;-77
2023/10/31 05:30:03;;;;;;;;;;;8.50;99.90;;;;;;5058865;28;19916;-77
2023/10/31 05:32:31;;;;;;;;;;;8.50;99.90;;;;;;5070157;28;20620;-75
2023/10/31 05:34:56;;;;;;;;;;;8.50;99.90;;;;;;5077340;28;20320;-77
2023/10/31 05:37:22;;;;;;;;;;;8.40;99.90;;;;;;5077548;28;19991;-76
2023/10/31 05:39:47;;;;;;;;;;;8.30;99.90;;;;;;5072604;28;20395;-76
2023/10/31 05:42:13;;;;;;;;;;;8.40;99.90;;;;;;5058638;28;20361;-76
2023/10/31 05:44:39;;;;;;;;;;;8.30;99.90;;;;;;5057194;28;19928;-76
2023/10/31 05:47:04;;;;;;;;;;;8.30;99.90;;;;;;5058984;28;20304;-76
2023/10/31 05:49:30;;;;;;;;;;;8.30;99.90;;;;;;5058571;28;19955;-76
2023/10/31 05:51:55;;;;;;;;;;;8.30;99.90;;;;;;5059500;28;20249;-76
2023/10/31 05:54:21;;;;;;;;;;;8.30;99.90;;;;;;5059952;28;20419;-77
2023/10/31 05:56:47;;;;;;;;;;;8.30;99.90;;;;;;5058895;28;19909;-76
2023/10/31 05:59:12;;;;;;;;;;;8.30;99.90;;;;;;5058709;28;20383;-77
2023/10/31 06:01:38;;;;;;;;;;;8.40;99.90;;;;;;5058439;28;19960;-76
2023/10/31 06:04:04;;;;;;;;;;;8.50;99.90;;;;;;5058097;28;19909;-76
2023/10/31 06:06:32;;;;;;;;;;;8.60;99.90;;;;;;5058280;28;19909;-76
2023/10/31 06:08:58;;;;;;;;;;;8.70;99.90;;;;;;5058224;28;20451;-75
2023/10/31 06:11:23;;;;;;;;;;;8.70;99.90;;;;;;5058238;28;19912;-77
2023/10/31 06:13:49;;;;;;;;;;;8.70;99.90;;;;;;5057060;28;19912;-76
2023/10/31 06:16:15;;;;;;;;;;;8.80;99.90;;;;;;5058084;28;19916;-76
2023/10/31 06:18:40;;;;;;;;;;;8.80;99.90;;;;;;5056761;28;20714;-77
2023/10/31 06:21:08;;;;;;;;;;;8.80;99.90;;;;;;5056743;28;19983;-76
2023/10/31 06:23:35;;;;;;;;;;;8.80;99.90;;;;;;5057921;28;19915;-76
2023/10/31 06:26:00;;;;;;;;;;;8.90;99.90;;;;;;5057943;28;19956;-76
2023/10/31 06:28:26;;;;;;;;;;;8.90;99.90;;;;;;5056750;28;19919;-76
2023/10/31 06:30:51;;;;;;;;;;;8.90;99.90;;;;;;5058080;28;19927;-76
2023/10/31 06:33:17;;;;;;;;;;;8.90;99.90;;;;;;5077323;28;19927;-77
2023/10/31 06:35:42;;;;;;;;;;;8.90;99.90;;;;;;5076320;28;19973;-76
2023/10/31 06:38:08;;;;;;;;;;;8.90;99.90;;;;;;5077554;28;19919;-77
2023/10/31 06:40:33;;;;;;;;;;;8.90;99.90;;;;;;5065242;28;19908;-76
2023/10/31 06:42:59;;;;;;;;;;;9.00;99.90;;;;;;5057413;28;19913;-77
2023/10/31 06:45:24;;;;;;;;;;;9.00;99.90;;;;;;5056023;28;19928;-76
2023/10/31 06:47:50;;;;;;;;;;;8.90;99.90;;;;;;5056279;28;19935;-76
2023/10/31 06:50:15;;;;;;;;;;;8.90;99.90;;;;;;5057296;28;19915;-76
2023/10/31 06:52:41;;;;;;;;;;;8.90;99.90;;;;;;5059139;28;19909;-76
2023/10/31 06:55:07;;;;;;;;;;;9.00;99.90;;;;;;5057310;28;19909;-77
2023/10/31 06:57:32;;;;;;;;;;;9.10;99.90;;;;;;5057250;28;20076;-77
2023/10/31 06:59:58;;;;;;;;;;;9.20;99.90;;;;;;5057147;28;19916;-77
2023/10/31 07:02:23;;;;;;;;;;;9.30;99.90;;;;;;5057001;28;19913;-77
2023/10/31 07:04:49;;;;;;;;;;;9.50;99.90;;;;;;5056978;28;20277;-77
2023/10/31 07:07:14;;;;;;;;;;;9.60;99.90;;;;;;5057144;28;19909;-77
2023/10/31 07:09:40;;;;;;;;;;;9.80;99.90;;;;;;5057411;28;19915;-77
2023/10/31 07:12:06;;;;;;;;;;;10.00;99.90;;;;;;5057341;28;19909;-76
2023/10/31 07:14:31;;;;;;;;;;;10.20;99.90;;;;;;5057054;28;20383;-77
2023/10/31 07:16:57;;;;;;;;;;;10.50;99.90;;;;;;5055637;28;20079;-76
2023/10/31 07:19:23;;;;;;;;;;;11.00;99.90;;;;;;5056901;28;20375;-76
2023/10/31 07:21:48;;;;;;;;;;;11.20;99.90;;;;;;5056850;28;19927;-77
2023/10/31 07:24:14;;;;;;;;;;;11.40;99.90;;;;;;5055438;28;19920;-76
2023/10/31 07:26:39;;;;;;;;;;;11.50;99.90;;;;;;5056775;28;19912;-77
2023/10/31 07:29:05;;;;;;;;;;;11.60;99.90;;;;;;5055651;28;19913;-79
2023/10/31 07:31:30;;;;;;;;;;;11.60;99.90;;;;;;5057872;28;20384;-77
2023/10/31 07:33:56;;;;;;;;;;;11.70;99.90;;;;;;5077067;28;19912;-78
2023/10/31 07:36:21;;;;;;;;;;;11.70;99.90;;;;;;5075460;28;19908;-77
2023/10/31 07:38:47;;;;;;;;;;;11.80;99.90;;;;;;5074073;28;20342;-77
2023/10/31 07:41:13;;;;;;;;;;;11.80;99.90;;;;;;5058379;28;19962;-78
2023/10/31 07:43:38;;;;;;;;;;;11.90;99.90;;;;;;5069639;28;19931;-75
2023/10/31 07:46:04;;;;;;;;;;;11.80;99.90;;;;;;5077241;28;20014;-77
2023/10/31 07:48:29;;;;;;;;;;;11.90;99.90;;;;;;5066274;28;19916;-76
2023/10/31 07:50:55;;;;;;;;;;;12.00;99.90;;;;;;5067197;28;19915;-77
2023/10/31 07:53:21;;;;;;;;;;;12.00;99.90;;;;;;5072126;28;19962;-77
2023/10/31 07:55:46;;;;;;;;;;;12.00;99.90;;;;;;5063910;28;19909;-77
2023/10/31 07:58:12;;;;;;;;;;;12.00;99.90;;;;;;5071402;28;19915;-78
2023/10/31 08:00:39;;;;;;;;;;;12.00;99.90;;;;;;5068938;28;19943;-77
2023/10/31 08:03:04;;;;;;;;;;;12.00;99.90;;;;;;5064589;28;19916;-76
2023/10/31 08:05:30;;;;;;;;;;;12.10;99.90;;;;;;5070998;28;19966;-77
2023/10/31 08:07:55;;;;;;;;;;;12.10;99.90;;;;;;5069195;28;19916;-77
2023/10/31 08:10:21;;;;;;;;;;;12.30;99.90;;;;;;5066858;28;19909;-78
2023/10/31 08:12:46;;;;;;;;;;;12.50;99.90;;;;;;5070042;28;19908;-78
2023/10/31 08:15:13;;;;;;;;;;;12.60;99.90;;;;;;5067539;28;19909;-78
2023/10/31 08:17:39;;;;;;;;;;;12.70;99.90;;;;;;5070889;28;19908;-77
2023/10/31 08:20:05;;;;;;;;;;;12.80;99.90;;;;;;5066815;28;19970;-78
2023/10/31 08:22:30;;;;;;;;;;;12.90;99.90;;;;;;5070845;28;19955;-80
2023/10/31 08:24:56;;;;;;;;;;;13.20;99.90;;;;;;5074581;28;19915;-77
2023/10/31 08:27:21;;;;;;;;;;;13.40;99.90;;;;;;5065952;28;19932;-77
2023/10/31 08:29:47;;;;;;;;;;;13.60;99.90;;;;;;5058970;28;19927;-77
2023/10/31 08:32:13;;;;;;;;;;;13.70;99.90;;;;;;5072423;28;19909;-77
2023/10/31 08:34:38;;;;;;;;;;;13.80;99.90;;;;;;5063762;28;19967;-77
2023/10/31 08:37:04;;;;;;;;;;;13.90;99.90;;;;;;5069512;28;19935;-77
2023/10/31 08:39:30;;;;;;;;;;;13.90;99.90;;;;;;5083076;28;19952;-77
2023/10/31 08:41:56;;;;;;;;;;;13.90;99.90;;;;;;5068009;28;19920;-77
2023/10/31 08:44:22;;;;;;;;;;;13.80;99.90;;;;;;5071258;28;19954;-77
2023/10/31 08:46:48;;;;;;;;;;;13.70;99.90;;;;;;5071862;28;20003;-77
2023/10/31 08:49:17;;;;;;;;;;;13.60;99.90;;;;;;5071478;28;20402;-77
2023/10/31 08:51:42;;;;;;;;;;;13.60;99.90;;;;;;5074174;28;19908;-77
2023/10/31 08:54:08;;;;;;;;;;;13.70;99.90;;;;;;5075992;28;20335;-77
2023/10/31 08:56:34;;;;;;;;;;;13.80;99.90;;;;;;5074892;28;19935;-77
2023/10/31 08:59:00;;;;;;;;;;;14.00;99.90;;;;;;5077519;28;19908;-78
2023/10/31 09:01:26;;;;;;;;;;;14.20;99.90;;;;;;5075613;28;19920;-76
2023/10/31 09:03:52;;;;;;;;;;;14.30;99.90;;;;;;5077826;28;19920;-76
2023/10/31 09:06:18;;;;;;;;;;;14.30;99.90;;;;;;5078654;28;19962;-78
2023/10/31 09:08:43;;;;;;;;;;;14.30;99.90;;;;;;5078750;28;19908;-79
2023/10/31 09:11:09;;;;;;;;;;;14.20;99.90;;;;;;5077339;28;19909;-77
2023/10/31 09:13:34;;;;;;;;;;;14.20;99.90;;;;;;5078440;28;19909;-78
2023/10/31 09:16:00;;;;;;;;;;;14.20;99.90;;;;;;5078370;28;19912;-78
2023/10/31 09:18:25;;;;;;;;;;;14.20;99.90;;;;;;5076406;28;19978;-80
2023/10/31 09:20:51;;;;;;;;;;;14.10;99.90;;;;;;5059069;28;19948;-77
2023/10/31 09:23:17;;;;;;;;;;;14.00;99.90;;;;;;5059176;28;19913;-80
2023/10/31 09:25:45;;;;;;;;;;;14.10;99.90;;;;;;5059284;28;19924;-78
2023/10/31 09:28:11;;;;;;;;;;;14.10;99.90;;;;;;5059076;28;19909;-77
2023/10/31 09:30:37;;;;;;;;;;;14.30;99.90;;;;;;5057688;28;20497;-77
2023/10/31 09:33:02;;;;;;;;;;;14.50;99.90;;;;;;5076790;28;19920;-83
2023/10/31 09:35:28;;;;;;;;;;;14.60;99.90;;;;;;5077705;28;19917;-80
2023/10/31 09:37:53;;;;;;;;;;;14.70;99.90;;;;;;5079094;28;19912;-82
2023/10/31 09:40:19;;;;;;;;;;;14.80;99.90;;;;;;5068558;28;19916;-83
2023/10/31 09:42:45;;;;;;;;;;;14.80;99.90;;;;;;5058808;28;19913;-81
2023/10/31 09:45:11;;;;;;;;;;;14.90;99.90;;;;;;5058671;28;19920;-80
2023/10/31 09:47:37;;;;;;;;;;;15.00;99.90;;;;;;5072344;28;19909;-78
2023/10/31 09:50:03;;;;;;;;;;;15.10;99.90;;;;;;5058475;28;19912;-79
2023/10/31 09:52:29;;;;;;;;;;;15.10;99.90;;;;;;5061271;28;20315;-81
2023/10/31 09:54:54;;;;;;;;;;;15.10;99.90;;;;;;5057297;28;19909;-81
2023/10/31 09:57:20;;;;;;;;;;;15.20;99.90;;;;;;5058655;28;20352;-81
2023/10/31 09:59:45;;;;;;;;;;;15.30;99.90;;;;;;5058955;28;19920;-82
2023/10/31 10:02:11;;;;;;;;;;;15.40;99.90;;;;;;5056518;28;19913;-80
2023/10/31 10:04:39;;;;;;;;;;;15.60;99.90;;;;;;5056949;28;20464;-79
2023/10/31 10:07:05;;;;;;;;;;;15.80;99.90;;;;;;5057987;28;19909;-78
2023/10/31 10:09:32;;;;;;;;;;;15.90;99.90;;;;;;5056855;28;19915;-79
2023/10/31 10:12:01;;;;;;;;;;;15.90;99.90;;;;;;5056811;28;19909;-79
2023/10/31 10:14:28;;;;;;;;;;;16.00;99.90;;;;;;5058337;28;19909;-82
2023/10/31 10:16:54;;;;;;;;;;;16.00;99.90;;;;;;5058242;28;19912;-78
2023/10/31 10:19:21;;;;;;;;;;;16.10;99.90;;;;;;5056628;28;20402;-77
2023/10/31 10:21:51;;;;;;;;;;;16.20;99.90;;;;;;5058330;28;19997;-79
2023/10/31 10:24:17;;;;;;;;;;;16.40;99.90;;;;;;5057913;28;19909;-77
2023/10/31 10:26:43;;;;;;;;;;;16.50;99.90;;;;;;5057888;28;19919;-78
2023/10/31 10:29:08;;;;;;;;;;;16.50;99.90;;;;;;5057906;28;19916;-81
2023/10/31 10:31:34;;;;;;;;;;;16.60;99.90;;;;;;5062698;28;20304;-76
2023/10/31 10:34:01;;;;;;;;;;;16.60;99.90;;;;;;5077690;28;19908;-80
2023/10/31 10:36:27;;;;;;;;;;;16.70;99.90;;;;;;5077823;28;19951;-80
2023/10/31 10:38:57;;;;;;;;;;;16.70;99.90;;;;;;5077716;28;19908;-80
2023/10/31 10:41:24;;;;;;;;;;;16.60;99.90;;;;;;5058118;28;20406;-77
2023/10/31 10:43:55;;;;;;;;;;;16.50;99.90;;;;;;5057358;28;19913;-77
2023/10/31 10:46:22;;;;;;;;;;;16.50;99.90;;;;;;5057469;28;20270;-78
2023/10/31 10:48:48;;;;;;;;;;;16.60;99.90;;;;;;5056281;28;19934;-78
2023/10/31 10:51:20;;;;;;;;;;;16.70;99.90;;;;;;5057457;28;19916;-81
2023/10/31 10:53:50;;;;;;;;;;;16.70;99.90;;;;;;5060040;28;19913;-80
2023/10/31 10:56:23;;;;;;;;;;;16.70;99.90;;;;;;5072964;28;19987;-79
2023/10/31 10:58:55;;;;;;;;;;;16.80;99.90;;;;;;5063746;28;19913;-80
2023/10/31 11:01:20;;;;;;;;;;;16.90;99.90;;;;;;5073277;28;19922;-78
2023/10/31 11:03:46;;;;;;;;;;;16.90;99.90;;;;;;5073307;28;19992;-77
2023/10/31 11:06:12;;;;;;;;;;;16.90;99.90;;;;;;5074938;28;19915;-77
2023/10/31 11:08:39;;;;;;;;;;;16.90;99.90;;;;;;5075029;28;19955;-76
2023/10/31 11:11:05;;;;;;;;;;;17.00;99.90;;;;;;5073596;28;19955;-76
2023/10/31 11:13:31;;;;;;;;;;;17.20;99.90;;;;;;5072170;28;19952;-76
2023/10/31 11:15:59;;;;;;;;;;;17.40;99.90;;;;;;5074019;28;19908;-77
2023/10/31 11:18:25;;;;;;;;;;;17.40;99.90;;;;;;5087326;28;19916;-77
2023/10/31 11:20:51;;;;;;;;;;;17.50;99.90;;;;;;5073994;28;20045;-76
2023/10/31 11:23:16;;;;;;;;;;;17.70;99.90;;;;;;5074447;28;20006;-77
2023/10/31 11:25:43;;;;;;;;;;;17.80;99.90;;;;;;5075302;28;19930;-77
2023/10/31 11:28:13;;;;;;;;;;;17.80;99.90;;;;;;5075172;28;20462;-75
2023/10/31 11:30:39;;;;;;;;;;;17.80;99.90;;;;;;5075248;28;20377;-74
2023/10/31 11:33:05;;;;;;;;;;;17.70;99.90;;;;;;5075058;28;19966;-76
2023/10/31 11:35:33;;;;;;;;;;;17.50;99.90;;;;;;5074368;28;19916;-77
2023/10/31 11:38:08;;;;;;;;;;;17.40;99.90;;;;;;5073495;28;20386;-75
2023/10/31 11:40:49;;;;;;;;;;;17.40;99.90;;;;;;5073949;28;19954;-78
2023/10/31 11:43:14;;;;;;;;;;;17.50;99.90;;;;;;5071447;28;20307;-79
2023/10/31 11:45:44;;;;;;;;;;;17.70;99.90;;;;;;5071882;28;19925;-77
2023/10/31 11:48:10;;;;;;;;;;;17.90;99.90;;;;;;5073827;28;20315;-76
2023/10/31 11:50:36;;;;;;;;;;;18.10;99.90;;;;;;5070782;28;19916;-75
2023/10/31 11:53:05;;;;;;;;;;;18.20;99.90;;;;;;5071185;28;20395;-76
2023/10/31 11:55:39;;;;;;;;;;;18.20;99.90;;;;;;5069933;28;20430;-77
2023/10/31 11:58:23;;;;;;;;;;;18.30;99.90;;;;;;5069217;28;19908;-75
2023/10/31 12:00:49;;;;;;;;;;;18.20;99.90;;;;;;5072953;28;19908;-76
2023/10/31 12:03:16;;;;;;;;;;;18.30;99.90;;;;;;5070832;28;19912;-80
2023/10/31 12:05:50;;;;;;;;;;;18.20;99.90;;;;;;5072766;28;20399;-76
2023/10/31 12:08:23;;;;;;;;;;;18.20;99.90;;;;;;5072146;28;19908;-76
2023/10/31 12:10:49;;;;;;;;;;;18.00;99.90;;;;;;5073120;28;20394;-77
2023/10/31 12:13:14;;;;;;;;;;;17.90;99.90;;;;;;5074620;28;19954;-75
2023/10/31 12:15:50;;;;;;;;;;;17.80;99.90;;;;;;5074665;28;19967;-77
2023/10/31 12:18:17;;;;;;;;;;;17.80;99.90;;;;;;5074887;28;19947;-76
2023/10/31 12:20:50;;;;;;;;;;;17.70;99.90;;;;;;5074473;28;19917;-77
2023/10/31 12:23:15;;;;;;;;;;;17.80;99.90;;;;;;5073132;28;20380;-74
2023/10/31 12:25:50;;;;;;;;;;;17.70;99.90;;;;;;5073893;28;19908;-75
2023/10/31 12:28:22;;;;;;;;;;;17.70;99.90;;;;;;5077779;28;19912;-77
2023/10/31 12:30:49;;;;;;;;;;;17.70;99.90;;;;;;5078510;28;19917;-76
2023/10/31 12:33:15;;;;;;;;;;;17.70;99.90;;;;;;5074403;28;19909;-75
2023/10/31 12:35:41;;;;;;;;;;;17.70;99.90;;;;;;5078234;28;19959;-75
2023/10/31 12:38:07;;;;;;;;;;;17.70;99.90;;;;;;5076474;28;19912;-76
2023/10/31 12:40:34;;;;;;;;;;;17.80;99.90;;;;;;5078604;28;19916;-75
2023/10/31 12:43:01;;;;;;;;;;;17.70;99.90;;;;;;5073541;28;20399;-75
2023/10/31 12:45:26;;;;;;;;;;;17.70;99.90;;;;;;5075963;28;20022;-77
2023/10/31 12:48:08;;;;;;;;;;;17.70;99.90;;;;;;5078567;28;19946;-76
2023/10/31 12:50:37;;;;;;;;;;;17.70;99.90;;;;;;5076147;28;19919;-77
2023/10/31 12:53:03;;;;;;;;;;;17.80;99.90;;;;;;5078404;28;20284;-76
2023/10/31 12:55:29;;;;;;;;;;;17.80;99.90;;;;;;5077560;28;20000;-75
2023/10/31 12:57:55;;;;;;;;;;;17.90;99.90;;;;;;5078138;28;19921;-76
2023/10/31 13:00:25;;;;;;;;;;;17.90;99.90;;;;;;5076394;28;19955;-77
2023/10/31 13:02:51;;;;;;;;;;;17.90;99.90;;;;;;5076800;28;20003;-77
2023/10/31 13:05:17;;;;;;;;;;;17.90;99.90;;;;;;5075304;28;19908;-77
2023/10/31 13:07:51;;;;;;;;;;;17.90;99.90;;;;;;5076652;28;19919;-77
2023/10/31 13:10:17;;;;;;;;;;;18.00;99.90;;;;;;5076085;28;19956;-75
2023/10/31 13:12:46;;;;;;;;;;;18.10;99.90;;;;;;5077724;28;19917;-76
2023/10/31 13:15:15;;;;;;;;;;;18.20;99.90;;;;;;5072535;28;20311;-76
2023/10/31 13:17:43;;;;;;;;;;;18.20;99.90;;;;;;5076881;28;19935;-75
2023/10/31 13:20:09;;;;;;;;;;;18.20;99.90;;;;;;5077769;28;19913;-75
2023/10/31 13:22:35;;;;;;;;;;;18.30;99.90;;;;;;5075559;28;20376;-74
2023/10/31 13:25:04;;;;;;;;;;;18.30;99.90;;;;;;5073988;28;19908;-77
2023/10/31 13:27:36;;;;;;;;;;;18.30;99.90;;;;;;5076573;28;19995;-77
2023/10/31 13:30:02;;;;;;;;;;;18.30;99.90;;;;;;5073927;28;19947;-77
2023/10/31 13:32:27;;;;;;;;;;;18.30;99.90;;;;;;5076449;28;20463;-73
2023/10/31 13:34:53;;;;;;;;;;;18.30;99.90;;;;;;5073339;28;20322;-74
2023/10/31 13:37:19;;;;;;;;;;;18.20;99.90;;;;;;5075457;28;19923;-75
2023/10/31 13:39:44;;;;;;;;;;;18.20;99.90;;;;;;5077027;28;19928;-75
2023/10/31 13:42:10;;;;;;;;;;;18.30;99.90;;;;;;5076193;28;20006;-77
2023/10/31 13:44:38;;;;;;;;;;;18.30;99.90;;;;;;5076779;28;19927;-76
2023/10/31 13:47:04;;;;;;;;;;;18.30;99.90;;;;;;5073530;28;19943;-77
2023/10/31 13:49:30;;;;;;;;;;;18.30;99.90;;;;;;5075349;28;19913;-74
2023/10/31 13:51:56;;;;;;;;;;;18.30;99.90;;;;;;5075688;28;20384;-73
2023/10/31 13:54:21;;;;;;;;;;;18.20;99.90;;;;;;5075709;28;19909;-75
2023/10/31 13:56:47;;;;;;;;;;;18.20;99.90;;;;;;5076790;28;19976;-75
2023/10/31 13:59:13;;;;;;;;;;;18.10;99.90;;;;;;5074536;28;20296;-76
2023/10/31 14:01:39;;;;;;;;;;;18.10;99.90;;;;;;5076963;28;19924;-74
2023/10/31 14:04:06;;;;;;;;;;;18.20;99.90;;;;;;5075862;28;20392;-76
2023/10/31 14:06:32;;;;;;;;;;;18.20;99.90;;;;;;5075712;28;19951;-76
2023/10/31 14:08:58;;;;;;;;;;;18.20;99.90;;;;;;5075624;28;19939;-73
2023/10/31 14:11:23;;;;;;;;;;;18.10;99.90;;;;;;5074673;28;20400;-76
2023/10/31 14:13:50;;;;;;;;;;;18.00;99.90;;;;;;5074275;28;19978;-75
2023/10/31 14:16:15;;;;;;;;;;;18.00;99.90;;;;;;5075330;28;20329;-76
2023/10/31 14:18:42;;;;;;;;;;;17.90;99.90;;;;;;5073720;28;19912;-76
2023/10/31 14:21:08;;;;;;;;;;;17.90;99.90;;;;;;5075558;28;19916;-76
2023/10/31 14:23:34;;;;;;;;;;;17.80;99.90;;;;;;5076030;28;20330;-77
2023/10/31 14:25:59;;;;;;;;;;;17.80;99.90;;;;;;5076494;28;19908;-77
2023/10/31 14:28:25;;;;;;;;;;;17.70;99.90;;;;;;5074872;28;19920;-74
2023/10/31 14:30:52;;;;;;;;;;;17.70;99.90;;;;;;5076307;28;20502;-77
2023/10/31 14:33:17;;;;;;;;;;;17.60;99.90;;;;;;5074964;28;19908;-77
2023/10/31 14:35:43;;;;;;;;;;;17.60;99.90;;;;;;5075657;28;20384;-77
2023/10/31 14:38:09;;;;;;;;;;;17.50;99.90;;;;;;5075297;28;20269;-77
2023/10/31 14:40:34;;;;;;;;;;;17.50;99.90;;;;;;5076556;28;19940;-77
2023/10/31 14:43:00;;;;;;;;;;;17.50;99.90;;;;;;5075610;28;19979;-77
2023/10/31 14:45:26;;;;;;;;;;;17.40;99.90;;;;;;5075153;28;19931;-77